sensor_id;sensor_type;location;lat;lon;timestamp;pressure;altitude;pressure_sealevel;temperature;humidity
50087;BME280;35967;50.718;7.050;2024-02-14T00:06:25;100858.47;;;8.80;82.21
50087;BME280;35967;50.718;7.050;2024-02-14T00:16:28;100849.94;;;8.78;82.57
50087;BME280;35967;50.718;7.050;2024-02-14T00:26:34;100822.59;;;8.76;83.30
50087;BME280;35967;50.718;7.050;2024-02-14T00:36:37;100840.69;;;8.65;84.63
50087;BME280;35967;50.718;7.050;2024-02-14T00:46:42;100821.81;;;8.71;85.81
50087;BME280;35967;50.718;7.050;2024-02-14T00:56:45;100821.78;;;8.72;86.65
50087;BME280;35967;50.718;7.050;2024-02-14T01:06:49;100821.72;;;8.78;87.21
50087;BME280;35967;50.718;7.050;2024-02-14T01:16:53;100812.31;;;8.79;87.92
50087;BME280;35967;50.718;7.050;2024-02-14T01:26:58;100799.53;;;8.74;88.97
50087;BME280;35967;50.718;7.050;2024-02-14T01:37:01;100785.13;;;8.62;89.67
50087;BME280;35967;50.718;7.050;2024-02-14T01:47:06;100786.09;;;8.52;90.43
50087;BME280;35967;50.718;7.050;2024-02-14T01:57:09;100792.94;;;8.53;91.64
50087;BME280;35967;50.718;7.050;2024-02-14T02:07:14;100790.38;;;8.53;92.66
50087;BME280;35967;50.718;7.050;2024-02-14T02:17:17;100778.34;;;8.57;93.48
50087;BME280;35967;50.718;7.050;2024-02-14T02:27:22;100783.47;;;8.60;94.31
50087;BME280;35967;50.718;7.050;2024-02-14T02:37:25;100770.66;;;8.57;95.06
50087;BME280;35967;50.718;7.050;2024-02-14T02:47:31;100786.81;;;8.62;95.78
50087;BME280;35967;50.718;7.050;2024-02-14T02:57:34;100788.53;;;8.64;96.22
50087;BME280;35967;50.718;7.050;2024-02-14T03:07:39;100801.31;;;8.67;96.67
50087;BME280;35967;50.718;7.050;2024-02-14T03:17:46;100810.63;;;8.76;96.72
50087;BME280;35967;50.718;7.050;2024-02-14T03:27:51;100820.75;;;8.89;96.75
50087;BME280;35967;50.718;7.050;2024-02-14T03:37:55;100829.25;;;8.92;96.33
50087;BME280;35967;50.718;7.050;2024-02-14T03:47:59;100822.44;;;8.90;96.81
50087;BME280;35967;50.718;7.050;2024-02-14T03:58:03;100807.88;;;8.90;96.62
50087;BME280;35967;50.718;7.050;2024-02-14T04:08:08;100825.94;;;8.84;97.15
50087;BME280;35967;50.718;7.050;2024-02-14T04:18:12;100813.16;;;8.79;97.40
50087;BME280;35967;50.718;7.050;2024-02-14T04:28:17;100827.69;;;8.80;98.13
50087;BME280;35967;50.718;7.050;2024-02-14T04:38:20;100833.53;;;8.90;97.73
50087;BME280;35967;50.718;7.050;2024-02-14T04:48:25;100825.09;;;8.83;98.28
50087;BME280;35967;50.718;7.050;2024-02-14T04:58:28;100824.16;;;8.89;99.13
50087;BME280;35967;50.718;7.050;2024-02-14T05:08:33;100826.66;;;8.94;99.62
50087;BME280;35967;50.718;7.050;2024-02-14T05:18:36;100829.22;;;8.95;99.69
50087;BME280;35967;50.718;7.050;2024-02-14T05:28:42;100826.59;;;8.98;100.00
50087;BME280;35967;50.718;7.050;2024-02-14T05:38:45;100837.69;;;9.04;100.00
50087;BME280;35967;50.718;7.050;2024-02-14T05:48:49;100841.84;;;9.09;100.00
50087;BME280;35967;50.718;7.050;2024-02-14T05:58:54;100864.81;;;9.25;100.00
50087;BME280;35967;50.718;7.050;2024-02-14T06:08:59;100850.13;;;9.31;99.55
50087;BME280;35967;50.718;7.050;2024-02-14T06:19:02;100844.13;;;9.32;99.12
50087;BME280;35967;50.718;7.050;2024-02-14T06:29:07;100859.50;;;9.34;98.98
50087;BME280;35967;50.718;7.050;2024-02-14T06:39:10;100872.34;;;9.36;99.25
50087;BME280;35967;50.718;7.050;2024-02-14T06:49:15;100886.00;;;9.39;99.13
50087;BME280;35967;50.718;7.050;2024-02-14T06:59:19;100895.41;;;9.40;99.28
50087;BME280;35967;50.718;7.050;2024-02-14T07:09:24;100887.66;;;9.45;99.53
50087;BME280;35967;50.718;7.050;2024-02-14T07:19:27;100906.38;;;9.53;99.21
50087;BME280;35967;50.718;7.050;2024-02-14T07:29:32;100903.72;;;9.58;98.59
50087;BME280;35967;50.718;7.050;2024-02-14T07:39:35;100910.50;;;9.65;98.22
50087;BME280;35967;50.718;7.050;2024-02-14T07:49:40;100911.19;;;9.76;97.77
50087;BME280;35967;50.718;7.050;2024-02-14T07:59:43;100912.56;;;9.98;97.00
50087;BME280;35967;50.718;7.050;2024-02-14T08:09:48;100920.16;;;10.07;96.56
50087;BME280;35967;50.718;7.050;2024-02-14T08:19:51;100925.09;;;10.19;96.72
50087;BME280;35967;50.718;7.050;2024-02-14T08:29:56;100937.94;;;10.19;96.24
50087;BME280;35967;50.718;7.050;2024-02-14T08:39:59;100939.47;;;10.33;95.91
50087;BME280;35967;50.718;7.050;2024-02-14T08:50:03;100939.09;;;10.56;95.77
50087;BME280;35967;50.718;7.050;2024-02-14T09:00:07;100945.56;;;10.79;94.93
50087;BME280;35967;50.718;7.050;2024-02-14T09:10:14;100940.41;;;10.79;94.75
50087;BME280;35967;50.718;7.050;2024-02-14T09:20:17;100940.34;;;10.82;93.68
50087;BME280;35967;50.718;7.050;2024-02-14T09:30:22;100944.50;;;10.89;93.39
50087;BME280;35967;50.718;7.050;2024-02-14T09:40:40;100958.44;;;11.23;92.79
50087;BME280;35967;50.718;7.050;2024-02-14T09:50:45;100946.34;;;11.68;95.63
50087;BME280;35967;50.718;7.050;2024-02-14T10:00:50;100968.41;;;11.80;88.78
50087;BME280;35967;50.718;7.050;2024-02-14T10:10:57;100980.81;;;12.05;88.49
50087;BME280;35967;50.718;7.050;2024-02-14T10:21:03;100974.28;;;12.26;87.81
50087;BME280;35967;50.718;7.050;2024-02-14T10:31:09;100982.75;;;12.33;86.37
50087;BME280;35967;50.718;7.050;2024-02-14T10:41:13;100996.06;;;12.14;86.91
50087;BME280;35967;50.718;7.050;2024-02-14T10:51:18;100985.97;;;12.05;86.32
50087;BME280;35967;50.718;7.050;2024-02-14T11:01:22;100977.09;;;12.17;86.38
50087;BME280;35967;50.718;7.050;2024-02-14T11:11:29;100979.06;;;12.42;86.66
50087;BME280;35967;50.718;7.050;2024-02-14T11:21:35;100965.94;;;12.51;86.46
50087;BME280;35967;50.718;7.050;2024-02-14T11:31:39;100971.66;;;12.62;85.98
50087;BME280;35967;50.718;7.050;2024-02-14T11:41:43;100975.34;;;12.54;86.76
50087;BME280;35967;50.718;7.050;2024-02-14T11:51:48;100964.97;;;12.55;86.21
50087;BME280;35967;50.718;7.050;2024-02-14T12:01:51;100963.91;;;12.62;86.28
50087;BME280;35967;50.718;7.050;2024-02-14T12:11:57;100960.31;;;12.70;86.00
50087;BME280;35967;50.718;7.050;2024-02-14T12:22:02;100958.91;;;12.56;87.30
50087;BME280;35967;50.718;7.050;2024-02-14T12:32:08;100959.78;;;12.57;87.47
50087;BME280;35967;50.718;7.050;2024-02-14T12:42:11;100952.81;;;12.59;87.72
50087;BME280;35967;50.718;7.050;2024-02-14T12:52:16;100956.50;;;12.50;88.74
50087;BME280;35967;50.718;7.050;2024-02-14T13:02:19;100960.19;;;12.40;89.73
50087;BME280;35967;50.718;7.050;2024-02-14T13:12:24;100949.03;;;12.39;92.07
50087;BME280;35967;50.718;7.050;2024-02-14T13:22:27;100939.91;;;12.24;94.25
50087;BME280;35967;50.718;7.050;2024-02-14T13:32:32;100951.75;;;11.97;99.86
50087;BME280;35967;50.718;7.050;2024-02-14T13:42:35;100949.13;;;11.98;100.00
50087;BME280;35967;50.718;7.050;2024-02-14T13:52:40;100945.69;;;11.59;100.00
50087;BME280;35967;50.718;7.050;2024-02-14T14:02:44;100941.69;;;11.44;100.00
50087;BME280;35967;50.718;7.050;2024-02-14T14:12:49;100937.44;;;11.43;100.00
50087;BME280;35967;50.718;7.050;2024-02-14T14:22:52;100939.22;;;11.41;100.00
50087;BME280;35967;50.718;7.050;2024-02-14T14:32:56;100941.81;;;11.39;100.00
50087;BME280;35967;50.718;7.050;2024-02-14T14:42:59;100941.25;;;11.25;100.00
50087;BME280;35967;50.718;7.050;2024-02-14T14:53:04;100934.97;;;11.36;100.00
50087;BME280;35967;50.718;7.050;2024-02-14T15:03:08;100947.03;;;11.34;100.00
50087;BME280;35967;50.718;7.050;2024-02-14T15:13:12;100948.66;;;11.40;100.00
50087;BME280;35967;50.718;7.050;2024-02-14T15:23:17;100948.88;;;11.29;100.00
50087;BME280;35967;50.718;7.050;2024-02-14T15:33:21;100943.72;;;11.29;100.00
50087;BME280;35967;50.718;7.050;2024-02-14T15:43:25;100935.91;;;11.34;100.00
50087;BME280;35967;50.718;7.050;2024-02-14T15:53:30;100928.91;;;11.41;100.00
50087;BME280;35967;50.718;7.050;2024-02-14T16:03:34;100929.50;;;11.52;100.00
50087;BME280;35967;50.718;7.050;2024-02-14T16:13:39;100937.03;;;11.61;100.00
50087;BME280;35967;50.718;7.050;2024-02-14T16:23:42;100942.13;;;11.64;100.00
50087;BME280;35967;50.718;7.050;2024-02-14T16:33:46;100932.84;;;11.57;100.00
50087;BME280;35967;50.718;7.050;2024-02-14T16:43:51;100933.53;;;11.64;100.00
50087;BME280;35967;50.718;7.050;2024-02-14T16:53:55;100936.06;;;11.67;100.00
50087;BME280;35967;50.718;7.050;2024-02-14T17:03:58;100934.16;;;11.75;100.00
50087;BME280;35967;50.718;7.050;2024-02-14T17:14:08;100945.31;;;11.76;100.00
50087;BME280;35967;50.718;7.050;2024-02-14T17:24:13;100946.97;;;11.80;100.00
50087;BME280;35967;50.718;7.050;2024-02-14T17:34:18;100954.59;;;11.84;100.00
50087;BME280;35967;50.718;7.050;2024-02-14T17:44:21;100962.22;;;11.89;100.00
50087;BME280;35967;50.718;7.050;2024-02-14T17:54:26;100963.94;;;11.89;100.00
50087;BME280;35967;50.718;7.050;2024-02-14T18:04:29;100968.31;;;11.85;100.00
50087;BME280;35967;50.718;7.050;2024-02-14T18:14:33;100982.13;;;11.82;100.00
50087;BME280;35967;50.718;7.050;2024-02-14T18:24:37;100998.50;;;11.81;100.00
50087;BME280;35967;50.718;7.050;2024-02-14T18:34:44;101000.34;;;11.76;100.00
50087;BME280;35967;50.718;7.050;2024-02-14T18:44:47;101008.22;;;11.68;100.00
50087;BME280;35967;50.718;7.050;2024-02-14T18:54:52;101006.59;;;11.64;100.00
50087;BME280;35967;50.718;7.050;2024-02-14T19:04:55;101008.41;;;11.59;100.00
50087;BME280;35967;50.718;7.050;2024-02-14T19:14:59;101004.31;;;11.50;100.00
50087;BME280;35967;50.718;7.050;2024-02-14T19:25:06;101017.25;;;11.47;100.00
50087;BME280;35967;50.718;7.050;2024-02-14T19:35:11;101020.69;;;11.46;100.00
50087;BME280;35967;50.718;7.050;2024-02-14T19:45:14;101017.28;;;11.46;100.00
50087;BME280;35967;50.718;7.050;2024-02-14T19:55:18;101017.34;;;11.43;100.00
50087;BME280;35967;50.718;7.050;2024-02-14T20:05:22;101027.56;;;11.47;100.00
50087;BME280;35967;50.718;7.050;2024-02-14T20:15:28;101029.31;;;11.47;100.00
50087;BME280;35967;50.718;7.050;2024-02-14T20:25:31;101025.66;;;11.57;100.00
50087;BME280;35967;50.718;7.050;2024-02-14T20:35:37;101019.72;;;11.54;100.00
50087;BME280;35967;50.718;7.050;2024-02-14T20:45:40;101016.25;;;11.55;100.00
50087;BME280;35967;50.718;7.050;2024-02-14T20:55:45;101015.41;;;11.54;100.00
50087;BME280;35967;50.718;7.050;2024-02-14T21:05:48;101028.38;;;11.49;100.00
50087;BME280;35967;50.718;7.050;2024-02-14T21:15:53;101037.00;;;11.48;100.00
50087;BME280;35967;50.718;7.050;2024-02-14T21:25:57;101038.66;;;11.51;100.00
50087;BME280;35967;50.718;7.050;2024-02-14T21:36:02;101032.56;;;11.55;100.00
50087;BME280;35967;50.718;7.050;2024-02-14T21:46:05;101036.94;;;11.51;100.00
50087;BME280;35967;50.718;7.050;2024-02-14T21:56:09;101028.34;;;11.52;100.00
50087;BME280;35967;50.718;7.050;2024-02-14T22:06:12;101025.81;;;11.49;100.00
50087;BME280;35967;50.718;7.050;2024-02-14T22:16:17;101020.59;;;11.51;100.00
50087;BME280;35967;50.718;7.050;2024-02-14T22:26:21;101005.13;;;11.52;100.00
50087;BME280;35967;50.718;7.050;2024-02-14T22:36:25;101007.63;;;11.56;100.00
50087;BME280;35967;50.718;7.050;2024-02-14T22:46:30;101009.41;;;11.54;100.00
50087;BME280;35967;50.718;7.050;2024-02-14T22:56:34;101023.88;;;11.59;100.00
50087;BME280;35967;50.718;7.050;2024-02-14T23:06:40;101012.63;;;11.63;100.00
50087;BME280;35967;50.718;7.050;2024-02-14T23:16:45;101007.38;;;11.68;100.00
50087;BME280;35967;50.718;7.050;2024-02-14T23:26:48;101003.97;;;11.66;100.00
50087;BME280;35967;50.718;7.050;2024-02-14T23:36:53;101003.03;;;11.70;100.00
50087;BME280;35967;50.718;7.050;2024-02-14T23:46:56;101012.38;;;11.76;100.00
50087;BME280;35967;50.718;7.050;2024-02-14T23:57:01;101014.94;;;11.76;100.00
